createdAt,value
2023-03-31T00:00:25.083Z,100232.28
2023-03-31T00:02:53.985Z,100234.38
2023-03-31T00:05:21.392Z,100229.81
2023-03-31T00:07:48.559Z,100225.44
2023-03-31T00:10:19.268Z,100228.66
2023-03-31T00:12:46.455Z,100226.16
2023-03-31T00:15:14.690Z,100226.72
2023-03-31T00:17:43.478Z,100214.00
2023-03-31T00:20:12.381Z,100212.72
2023-03-31T00:22:46.689Z,100223.47
2023-03-31T00:25:14.407Z,100215.41
2023-03-31T00:27:44.050Z,100207.78
2023-03-31T00:30:14.266Z,100211.22
2023-03-31T00:32:41.615Z,100201.66
2023-03-31T00:35:09.332Z,100205.13
2023-03-31T00:37:36.337Z,100197.72
2023-03-31T00:40:09.946Z,100193.31
2023-03-31T00:42:41.305Z,100181.75
2023-03-31T00:45:30.231Z,100190.19
2023-03-31T00:48:05.908Z,100192.16
2023-03-31T00:50:41.207Z,100179.44
2023-03-31T00:53:14.424Z,100175.75
2023-03-31T00:55:47.151Z,100171.56
2023-03-31T00:58:20.039Z,100166.94
2023-03-31T01:00:54.245Z,100173.91
2023-03-31T01:03:25.142Z,100167.31
2023-03-31T01:05:57.596Z,100161.63
2023-03-31T01:08:27.783Z,100153.66
2023-03-31T01:10:59.519Z,100154.94
2023-03-31T01:13:27.508Z,100152.84
2023-03-31T01:15:55.802Z,100151.31
2023-03-31T01:18:24.195Z,100136.75
2023-03-31T01:21:25.877Z,100129.38
2023-03-31T01:24:35.651Z,100127.19
2023-03-31T01:27:33.648Z,100118.38
2023-03-31T01:30:53.079Z,100116.28
2023-03-31T01:34:12.497Z,100111.56
2023-03-31T01:37:37.687Z,100103.47
2023-03-31T01:40:26.129Z,100092.84
2023-03-31T01:43:03.054Z,100090.88
2023-03-31T01:45:50.113Z,100088.22
2023-03-31T01:48:23.574Z,100089.38
2023-03-31T01:50:58.223Z,100084.16
2023-03-31T01:53:35.938Z,100089.25
2023-03-31T01:56:14.087Z,100079.66
2023-03-31T01:58:49.282Z,100075.16
2023-03-31T02:01:26.142Z,100069.72
2023-03-31T02:03:58.220Z,100060.72
2023-03-31T02:06:35.110Z,100057.81
2023-03-31T02:09:08.787Z,100053.66
2023-03-31T02:11:40.142Z,100048.34
2023-03-31T02:14:14.112Z,100043.00
2023-03-31T02:16:47.598Z,100042.19
2023-03-31T02:19:19.179Z,100043.25
2023-03-31T02:21:49.783Z,100040.25
2023-03-31T02:24:21.841Z,100032.41
2023-03-31T02:26:58.021Z,100033.91
2023-03-31T02:29:25.221Z,100040.03
2023-03-31T02:32:01.175Z,100041.06
2023-03-31T02:34:28.251Z,100039.94
2023-03-31T02:36:55.575Z,100039.56
2023-03-31T02:39:28.061Z,100034.50
2023-03-31T02:41:57.379Z,100028.25
2023-03-31T02:44:25.105Z,100023.72
2023-03-31T02:46:52.867Z,100019.69
2023-03-31T02:49:21.609Z,100013.91
2023-03-31T02:52:09.523Z,100007.78
2023-03-31T02:55:01.812Z,100000.38
2023-03-31T02:57:58.212Z,100001.09
2023-03-31T03:00:41.266Z,100000.06
2023-03-31T03:03:29.429Z,99998.44
2023-03-31T03:06:13.565Z,99998.31
2023-03-31T03:09:01.817Z,99997.41
2023-03-31T03:11:39.342Z,99986.44
2023-03-31T03:14:23.612Z,99990.72
2023-03-31T03:16:59.838Z,99990.19
2023-03-31T03:19:26.821Z,99982.06
2023-03-31T03:21:54.495Z,99983.28
2023-03-31T03:24:22.801Z,99980.84
2023-03-31T03:26:49.725Z,99971.03
2023-03-31T03:29:17.888Z,99968.13
2023-03-31T03:31:44.826Z,99966.91
2023-03-31T03:34:11.694Z,99962.50
2023-03-31T03:36:39.676Z,99962.28
2023-03-31T03:39:07.981Z,99963.09
2023-03-31T03:41:36.157Z,99955.69
2023-03-31T03:44:03.215Z,99955.69
2023-03-31T03:46:31.594Z,99956.38
2023-03-31T03:48:58.687Z,99954.09
2023-03-31T03:51:25.694Z,99949.91
2023-03-31T03:53:52.612Z,99950.38
2023-03-31T03:56:19.601Z,99940.78
2023-03-31T03:58:46.542Z,99936.06
2023-03-31T04:01:14.270Z,99936.28
2023-03-31T04:03:42.497Z,99923.47
2023-03-31T04:06:09.613Z,99921.63
2023-03-31T04:08:36.899Z,99909.03
2023-03-31T04:11:09.736Z,99913.53
2023-03-31T04:13:36.597Z,99907.03
2023-03-31T04:16:03.859Z,99905.78
2023-03-31T04:18:30.906Z,99891.94
2023-03-31T04:21:04.831Z,99899.31
2023-03-31T04:23:31.972Z,99882.81
2023-03-31T04:25:59.292Z,99879.34
2023-03-31T04:28:26.664Z,99874.50
2023-03-31T04:30:58.864Z,99861.00
2023-03-31T04:33:25.785Z,99859.03
2023-03-31T04:35:52.836Z,99851.28
2023-03-31T04:38:23.233Z,99852.81
2023-03-31T04:40:52.685Z,99849.34
2023-03-31T04:43:21.140Z,99835.94
2023-03-31T04:45:48.073Z,99831.44
2023-03-31T04:48:15.195Z,99829.38
2023-03-31T04:50:42.440Z,99817.16
2023-03-31T04:53:09.483Z,99804.09
2023-03-31T04:55:37.707Z,99810.56
2023-03-31T04:58:04.604Z,99799.13
2023-03-31T05:00:31.480Z,99805.25
2023-03-31T05:02:59.989Z,99794.28
2023-03-31T05:05:27.281Z,99794.75
2023-03-31T05:07:54.155Z,99789.91
2023-03-31T05:10:21.663Z,99786.09
2023-03-31T05:12:50.337Z,99786.34
2023-03-31T05:15:17.539Z,99783.94
2023-03-31T05:17:44.850Z,99775.16
2023-03-31T05:20:13.545Z,99772.16
2023-03-31T05:22:43.310Z,99765.69
2023-03-31T05:25:14.435Z,99773.09
2023-03-31T05:27:41.369Z,99760.84
2023-03-31T05:30:10.930Z,99760.53
2023-03-31T05:32:37.901Z,99755.44
2023-03-31T05:35:05.930Z,99762.13
2023-03-31T05:37:32.884Z,99756.00
2023-03-31T05:39:59.947Z,99754.84
2023-03-31T05:42:26.919Z,99751.06
2023-03-31T05:44:53.792Z,99748.66
2023-03-31T05:47:23.145Z,99751.19
2023-03-31T05:49:50.901Z,99751.41
2023-03-31T05:52:18.077Z,99757.66
2023-03-31T05:54:45.185Z,99753.38
2023-03-31T05:57:12.284Z,99749.56
2023-03-31T05:59:40.787Z,99746.13
2023-03-31T06:02:11.145Z,99747.94
2023-03-31T06:04:39.752Z,99734.22
2023-03-31T06:07:06.668Z,99731.25
2023-03-31T06:09:33.531Z,99732.16
2023-03-31T06:12:00.624Z,99730.56
2023-03-31T06:14:28.058Z,99734.56
2023-03-31T06:16:57.383Z,99730.19
2023-03-31T06:19:24.838Z,99721.31
2023-03-31T06:21:53.068Z,99720.53
2023-03-31T06:24:19.912Z,99715.22
2023-03-31T06:26:46.801Z,99704.63
2023-03-31T06:29:13.711Z,99697.91
2023-03-31T06:31:40.839Z,99697.00
2023-03-31T06:34:07.907Z,99704.25
2023-03-31T06:36:35.096Z,99696.28
2023-03-31T06:39:03.639Z,99690.78
2023-03-31T06:41:30.643Z,99692.94
2023-03-31T06:43:57.542Z,99694.78
2023-03-31T06:46:24.513Z,99693.44
2023-03-31T06:48:51.472Z,99692.13
2023-03-31T06:51:18.414Z,99684.78
2023-03-31T06:53:45.272Z,99683.72
2023-03-31T06:56:13.513Z,99696.06
2023-03-31T06:58:40.456Z,99682.91
2023-03-31T07:01:07.939Z,99678.28
2023-03-31T07:03:35.480Z,99677.13
2023-03-31T07:06:02.507Z,99672.38
2023-03-31T07:08:29.459Z,99671.69
2023-03-31T07:10:59.331Z,99672.84
2023-03-31T07:13:28.704Z,99667.84
2023-03-31T07:15:56.235Z,99657.81
2023-03-31T07:18:25.982Z,99669.00
2023-03-31T07:20:53.287Z,99648.72
2023-03-31T07:23:21.077Z,99653.56
2023-03-31T07:25:48.605Z,99646.63
2023-03-31T07:28:16.290Z,99644.41
2023-03-31T07:30:44.723Z,99646.34
2023-03-31T07:33:11.664Z,99649.56
2023-03-31T07:35:40.819Z,99641.63
2023-03-31T07:38:09.788Z,99635.13
2023-03-31T07:40:37.916Z,99640.09
2023-03-31T07:43:05.898Z,99635.94
2023-03-31T07:45:34.289Z,99630.13
2023-03-31T07:48:03.051Z,99627.47
2023-03-31T07:50:30.396Z,99628.03
2023-03-31T07:52:57.827Z,99620.97
2023-03-31T07:55:26.261Z,99616.47
2023-03-31T07:57:53.594Z,99611.97
2023-03-31T08:00:22.002Z,99606.31
2023-03-31T08:02:50.095Z,99604.16
2023-03-31T08:05:21.682Z,99606.88
2023-03-31T08:07:50.643Z,99606.97
2023-03-31T08:10:23.752Z,99596.28
2023-03-31T08:12:50.765Z,99590.41
2023-03-31T08:15:18.707Z,99582.44
2023-03-31T08:17:45.901Z,99580.69
2023-03-31T08:20:13.213Z,99578.69
2023-03-31T08:22:41.712Z,99571.25
2023-03-31T08:25:09.933Z,99566.78
2023-03-31T08:27:40.018Z,99564.75
2023-03-31T08:30:11.145Z,99563.41
2023-03-31T08:32:38.737Z,99561.00
2023-03-31T08:35:08.413Z,99560.09
2023-03-31T08:37:35.721Z,99558.06
2023-03-31T08:40:05.764Z,99549.84
2023-03-31T08:42:42.060Z,99551.06
2023-03-31T08:45:20.226Z,99539.66
2023-03-31T08:47:52.043Z,99535.19
2023-03-31T08:50:25.003Z,99536.63
2023-03-31T08:53:03.910Z,99530.00
2023-03-31T08:55:49.801Z,99524.22
2023-03-31T08:58:32.321Z,99520.63
2023-03-31T09:01:09.809Z,99517.53
2023-03-31T09:03:51.908Z,99525.38
2023-03-31T09:06:34.322Z,99515.16
2023-03-31T09:09:08.154Z,99518.63
2023-03-31T09:11:44.010Z,99511.47
2023-03-31T09:14:30.414Z,99509.47
2023-03-31T09:17:15.980Z,99507.50
2023-03-31T09:19:50.785Z,99497.84
2023-03-31T09:22:24.146Z,99491.66
2023-03-31T09:24:59.100Z,99479.19
2023-03-31T09:27:32.507Z,99480.00
2023-03-31T09:30:05.334Z,99480.47
2023-03-31T09:32:33.879Z,99485.50
2023-03-31T09:35:16.140Z,99472.16
2023-03-31T09:37:43.420Z,99474.06
2023-03-31T09:40:18.038Z,99471.16
2023-03-31T09:42:48.711Z,99457.94
2023-03-31T09:45:18.029Z,99456.88
2023-03-31T09:47:51.335Z,99447.03
2023-03-31T09:50:19.043Z,99455.81
2023-03-31T09:52:56.220Z,99458.72
2023-03-31T09:55:40.200Z,99456.25
2023-03-31T09:58:14.289Z,99452.38
2023-03-31T10:01:01.700Z,99450.75
2023-03-31T10:03:36.520Z,99440.13
2023-03-31T10:06:11.043Z,99436.53
2023-03-31T10:08:43.055Z,99435.03
2023-03-31T10:11:12.856Z,99430.44
2023-03-31T10:13:48.174Z,99421.22
2023-03-31T10:16:23.887Z,99424.72
2023-03-31T10:18:51.024Z,99433.16
2023-03-31T10:21:23.983Z,99415.47
2023-03-31T10:23:52.224Z,99416.59
2023-03-31T10:26:24.110Z,99416.97
2023-03-31T10:28:55.254Z,99414.88
2023-03-31T10:31:34.586Z,99413.94
2023-03-31T10:34:07.903Z,99406.09
2023-03-31T10:36:36.084Z,99412.28
2023-03-31T10:39:07.753Z,99412.28
2023-03-31T10:41:35.798Z,99406.63
2023-03-31T10:44:05.100Z,99402.34
2023-03-31T10:46:47.136Z,99395.66
2023-03-31T10:49:26.799Z,99406.03
2023-03-31T10:51:56.468Z,99396.00
2023-03-31T10:54:24.339Z,99399.72
2023-03-31T10:56:56.444Z,99399.41
2023-03-31T10:59:58.700Z,99393.53
2023-03-31T11:02:57.367Z,99392.72
2023-03-31T11:05:34.627Z,99390.03
2023-03-31T11:08:27.147Z,99395.41
2023-03-31T11:11:13.128Z,99391.69
2023-03-31T11:13:51.297Z,99384.81
2023-03-31T11:16:29.228Z,99377.38
2023-03-31T11:19:17.007Z,99380.34
2023-03-31T11:22:00.406Z,99370.53
2023-03-31T11:24:51.435Z,99380.84
2023-03-31T11:27:41.161Z,99369.81
2023-03-31T11:30:20.583Z,99374.69
2023-03-31T11:33:08.494Z,99360.41
2023-03-31T11:35:59.523Z,99361.94
2023-03-31T11:39:00.103Z,99345.63
2023-03-31T11:41:34.926Z,99349.00
2023-03-31T11:44:05.788Z,99337.06
2023-03-31T11:46:41.390Z,99342.13
2023-03-31T11:49:19.005Z,99329.31
2023-03-31T11:51:54.653Z,99324.25
2023-03-31T11:54:31.625Z,99324.53
2023-03-31T11:57:10.368Z,99330.66
2023-03-31T11:59:40.977Z,99322.91
2023-03-31T12:02:20.012Z,99327.72
2023-03-31T12:04:53.423Z,99325.56
2023-03-31T12:07:29.443Z,99324.47
2023-03-31T12:10:05.820Z,99324.47
2023-03-31T12:12:43.770Z,99325.00
2023-03-31T12:15:23.822Z,99326.09
2023-03-31T12:18:00.833Z,99334.16
2023-03-31T12:20:41.218Z,99324.81
2023-03-31T12:23:18.816Z,99332.00
2023-03-31T12:25:55.506Z,99334.66
2023-03-31T12:28:27.393Z,99334.94
2023-03-31T12:30:57.772Z,99327.75
2023-03-31T12:33:31.336Z,99329.31
2023-03-31T12:36:19.052Z,99323.66
2023-03-31T12:39:01.150Z,99322.84
2023-03-31T12:41:38.459Z,99317.25
2023-03-31T12:44:30.809Z,99323.63
2023-03-31T12:47:21.266Z,99326.53
2023-03-31T12:50:16.280Z,99320.88
2023-03-31T12:52:56.785Z,99317.91
2023-03-31T12:55:37.813Z,99320.66
2023-03-31T12:58:41.688Z,99315.38
2023-03-31T13:01:16.520Z,99310.09
2023-03-31T13:04:05.500Z,99313.81
2023-03-31T13:06:56.221Z,99317.03
2023-03-31T13:09:52.956Z,99303.38
2023-03-31T13:12:25.370Z,99306.59
2023-03-31T13:14:55.257Z,99304.19
2023-03-31T13:17:29.536Z,99297.53
2023-03-31T13:20:16.633Z,99307.16
2023-03-31T13:22:48.331Z,99306.06
2023-03-31T13:25:51.612Z,99313.84
2023-03-31T13:28:42.267Z,99302.13
2023-03-31T13:31:17.349Z,99295.16
2023-03-31T13:33:57.981Z,99292.50
2023-03-31T13:36:54.662Z,99302.13
2023-03-31T13:40:06.618Z,99303.97
2023-03-31T13:43:27.136Z,99311.69
2023-03-31T13:46:45.302Z,99307.66
2023-03-31T13:49:44.690Z,99303.13
2023-03-31T13:52:12.775Z,99306.84
2023-03-31T13:55:23.719Z,99305.22
2023-03-31T13:58:34.612Z,99301.50
2023-03-31T14:01:44.509Z,99303.09
2023-03-31T14:04:35.835Z,99301.50
2023-03-31T14:07:09.523Z,99291.63
2023-03-31T14:09:46.962Z,99296.47
2023-03-31T14:12:23.042Z,99295.13
2023-03-31T14:14:54.919Z,99292.47
2023-03-31T14:17:27.629Z,99290.34
2023-03-31T14:20:18.616Z,99290.38
2023-03-31T14:22:58.987Z,99287.69
2023-03-31T14:25:44.149Z,99285.22
2023-03-31T14:28:33.356Z,99291.34
2023-03-31T14:31:20.285Z,99287.03
2023-03-31T14:34:12.111Z,99282.75
2023-03-31T14:36:51.103Z,99277.22
2023-03-31T14:39:24.120Z,99279.56
2023-03-31T14:41:53.507Z,99278.69
2023-03-31T14:44:21.046Z,99278.91
2023-03-31T14:46:51.030Z,99267.75
2023-03-31T14:49:25.356Z,99276.81
2023-03-31T14:51:54.227Z,99278.28
2023-03-31T14:54:22.134Z,99288.44
2023-03-31T14:56:54.769Z,99282.69
2023-03-31T14:59:28.902Z,99283.84
2023-03-31T15:01:59.783Z,99275.81
2023-03-31T15:04:42.138Z,99281.69
2023-03-31T15:07:11.894Z,99276.38
2023-03-31T15:09:49.542Z,99276.59
2023-03-31T15:12:20.553Z,99277.97
2023-03-31T15:14:51.991Z,99271.91
2023-03-31T15:17:25.494Z,99275.38
2023-03-31T15:19:56.029Z,99274.69
2023-03-31T15:22:25.961Z,99278.94
2023-03-31T15:24:53.654Z,99279.06
2023-03-31T15:27:38.019Z,99270.03
2023-03-31T15:30:09.325Z,99273.81
2023-03-31T15:32:39.891Z,99265.81
2023-03-31T15:38:12.682Z,99267.13
2023-03-31T15:40:43.918Z,99269.00
2023-03-31T15:43:25.513Z,99265.78
2023-03-31T15:45:54.520Z,99267.66
2023-03-31T15:48:29.515Z,99273.25
2023-03-31T15:51:01.300Z,99271.13
2023-03-31T15:53:35.735Z,99270.06
2023-03-31T15:56:03.797Z,99270.84
2023-03-31T15:58:54.249Z,99267.91
2023-03-31T16:01:23.835Z,99268.94
2023-03-31T16:03:55.382Z,99271.06
2023-03-31T16:06:37.857Z,99265.47
2023-03-31T16:09:08.218Z,99260.94
2023-03-31T16:11:42.221Z,99258.81
2023-03-31T16:14:17.959Z,99257.72
2023-03-31T16:16:55.090Z,99260.38
2023-03-31T16:19:28.823Z,99260.38
2023-03-31T16:22:01.957Z,99258.78
2023-03-31T16:24:33.516Z,99262.50
2023-03-31T16:27:06.133Z,99253.19
2023-03-31T16:29:35.391Z,99260.09
2023-03-31T16:32:12.190Z,99260.91
2023-03-31T16:34:59.346Z,99250.75
2023-03-31T16:37:26.839Z,99252.38
2023-03-31T16:39:54.319Z,99253.97
2023-03-31T16:42:21.839Z,99256.31
2023-03-31T16:44:59.938Z,99263.47
2023-03-31T16:47:36.554Z,99255.19
2023-03-31T16:50:07.464Z,99254.09
2023-03-31T16:52:36.956Z,99253.53
2023-03-31T16:55:04.836Z,99253.81
2023-03-31T16:57:32.199Z,99248.75
2023-03-31T16:59:59.634Z,99247.94
2023-03-31T17:02:26.784Z,99242.63
2023-03-31T17:04:56.549Z,99255.41
2023-03-31T17:07:27.678Z,99250.59
2023-03-31T17:09:54.621Z,99255.91
2023-03-31T17:12:21.742Z,99248.19
2023-03-31T17:14:48.601Z,99256.44
2023-03-31T17:17:17.802Z,99258.84
2023-03-31T17:19:45.172Z,99255.38
2023-03-31T17:22:12.587Z,99254.31
2023-03-31T17:24:41.894Z,99254.31
2023-03-31T17:27:08.791Z,99251.63
2023-03-31T17:29:35.816Z,99253.22
2023-03-31T17:32:02.866Z,99248.97
2023-03-31T17:34:30.229Z,99255.31
2023-03-31T17:36:57.272Z,99258.50
2023-03-31T17:39:24.377Z,99256.34
2023-03-31T17:41:52.794Z,99253.66
2023-03-31T17:44:19.902Z,99254.97
2023-03-31T17:46:46.963Z,99267.72
2023-03-31T17:49:14.040Z,99258.91
2023-03-31T17:51:40.926Z,99261.25
2023-03-31T17:54:07.882Z,99273.72
2023-03-31T17:56:34.748Z,99256.41
2023-03-31T17:59:03.913Z,99269.91
2023-03-31T18:01:30.985Z,99278.88
2023-03-31T18:03:58.441Z,99268.25
2023-03-31T18:06:27.688Z,99263.41
2023-03-31T18:08:56.818Z,99271.34
2023-03-31T18:11:23.767Z,99266.00
2023-03-31T18:13:50.996Z,99272.63
2023-03-31T18:16:19.844Z,99268.66
2023-03-31T18:18:48.144Z,99272.56
2023-03-31T18:21:15.380Z,99271.25
2023-03-31T18:23:42.287Z,99275.53
2023-03-31T18:26:11.919Z,99268.38
2023-03-31T18:28:40.758Z,99264.34
2023-03-31T18:31:09.163Z,99277.13
2023-03-31T18:33:37.906Z,99274.34
2023-03-31T18:36:05.907Z,99269.81
2023-03-31T18:38:34.308Z,99270.34
2023-03-31T18:41:01.672Z,99275.81
2023-03-31T18:43:29.641Z,99271.00
2023-03-31T18:45:58.664Z,99278.97
2023-03-31T18:48:25.707Z,99276.81
2023-03-31T18:50:54.198Z,99279.72
2023-03-31T18:53:23.478Z,99278.94
2023-03-31T18:55:51.916Z,99283.94
2023-03-31T18:58:19.429Z,99281.53
2023-03-31T19:00:46.472Z,99286.56
2023-03-31T19:03:14.142Z,99284.41
2023-03-31T19:05:41.556Z,99279.88
2023-03-31T19:08:10.042Z,99279.38
2023-03-31T19:10:37.157Z,99275.41
2023-03-31T19:13:04.584Z,99277.84
2023-03-31T19:15:33.062Z,99284.72
2023-03-31T19:18:00.325Z,99292.22
2023-03-31T19:20:27.689Z,99312.69
2023-03-31T19:22:55.834Z,99301.19
2023-03-31T19:25:30.827Z,99320.06
2023-03-31T19:27:57.949Z,99315.19
2023-03-31T19:30:25.136Z,99312.88
2023-03-31T19:32:52.173Z,99319.72
2023-03-31T19:35:20.622Z,99314.44
2023-03-31T19:37:48.579Z,99316.81
2023-03-31T19:40:15.789Z,99305.97
2023-03-31T19:42:44.319Z,99308.56
2023-03-31T19:45:11.606Z,99303.72
2023-03-31T19:47:38.662Z,99296.34
2023-03-31T19:50:08.340Z,99309.66
2023-03-31T19:52:36.491Z,99304.44
2023-03-31T19:55:04.941Z,99308.16
2023-03-31T19:57:32.574Z,99309.38
2023-03-31T20:00:02.666Z,99310.25
2023-03-31T20:02:31.465Z,99304.09
2023-03-31T20:04:58.564Z,99307.78
2023-03-31T20:07:25.746Z,99307.22
2023-03-31T20:09:52.921Z,99310.44
2023-03-31T20:12:19.929Z,99303.09
2023-03-31T20:14:47.479Z,99303.09
2023-03-31T20:17:16.740Z,99301.00
2023-03-31T20:19:44.869Z,99307.69
2023-03-31T20:22:11.954Z,99301.09
2023-03-31T20:24:38.812Z,99299.72
2023-03-31T20:27:05.754Z,99295.78
2023-03-31T20:29:32.826Z,99295.28
2023-03-31T20:31:59.827Z,99295.38
2023-03-31T20:34:28.335Z,99296.41
2023-03-31T20:36:56.335Z,99292.31
2023-03-31T20:39:23.235Z,99297.31
2023-03-31T20:41:50.413Z,99293.59
2023-03-31T20:44:17.355Z,99294.97
2023-03-31T20:46:45.242Z,99293.44
2023-03-31T20:49:13.015Z,99286.03
2023-03-31T20:51:42.606Z,99294.81
2023-03-31T20:54:10.005Z,99296.72
2023-03-31T20:56:40.321Z,99294.94
2023-03-31T20:59:10.975Z,99297.91
2023-03-31T21:01:38.631Z,99289.69
2023-03-31T21:04:08.764Z,99292.91
2023-03-31T21:06:39.567Z,99293.22
2023-03-31T21:09:08.943Z,99302.56
2023-03-31T21:11:36.009Z,99296.44
2023-03-31T21:14:03.319Z,99296.16
2023-03-31T21:16:30.255Z,99304.47
2023-03-31T21:18:59.642Z,99304.78
2023-03-31T21:21:27.712Z,99301.63
2023-03-31T21:23:55.396Z,99300.59
2023-03-31T21:26:24.912Z,99304.78
2023-03-31T21:28:56.446Z,99304.72
2023-03-31T21:31:25.668Z,99302.06
2023-03-31T21:33:57.339Z,99303.66
2023-03-31T21:36:25.530Z,99309.44
2023-03-31T21:38:55.573Z,99308.34
2023-03-31T21:41:27.816Z,99299.34
2023-03-31T21:43:55.485Z,99303.34
2023-03-31T21:46:26.917Z,99308.66
2023-03-31T21:48:55.096Z,99304.41
2023-03-31T21:51:23.512Z,99305.94
2023-03-31T21:53:54.945Z,99313.66
2023-03-31T21:56:24.344Z,99313.66
2023-03-31T21:58:51.606Z,99314.13
2023-03-31T22:01:19.204Z,99310.94
2023-03-31T22:03:46.972Z,99308.19
2023-03-31T22:06:14.845Z,99305.00
2023-03-31T22:08:41.770Z,99306.06
2023-03-31T22:11:11.613Z,99319.72
2023-03-31T22:13:40.878Z,99312.25
2023-03-31T22:16:17.332Z,99312.25
2023-03-31T22:18:45.244Z,99313.88
2023-03-31T22:21:18.553Z,99316.28
2023-03-31T22:23:45.917Z,99310.16
2023-03-31T22:26:13.517Z,99308.56
2023-03-31T22:28:41.912Z,99314.44
2023-03-31T22:31:09.135Z,99310.97
2023-03-31T22:33:36.151Z,99313.88
2023-03-31T22:36:03.341Z,99308.81
2023-03-31T22:38:30.410Z,99309.84
2023-03-31T22:40:57.323Z,99309.03
2023-03-31T22:43:24.600Z,99316.44
2023-03-31T22:45:53.960Z,99316.44
2023-03-31T22:48:21.016Z,99321.75
2023-03-31T22:50:47.980Z,99319.34
2023-03-31T22:53:14.843Z,99316.44
2023-03-31T22:55:42.998Z,99320.13
2023-03-31T22:58:21.410Z,99314.81
2023-03-31T23:00:57.116Z,99323.38
2023-03-31T23:03:24.382Z,99323.13
2023-03-31T23:05:51.334Z,99321.13
2023-03-31T23:08:18.397Z,99318.81
2023-03-31T23:10:55.648Z,99323.53
2023-03-31T23:13:22.580Z,99312.44
2023-03-31T23:15:49.612Z,99316.16
2023-03-31T23:18:18.225Z,99320.16
2023-03-31T23:20:45.795Z,99320.97
2023-03-31T23:23:12.708Z,99317.28
2023-03-31T23:25:39.672Z,99311.72
2023-03-31T23:28:07.118Z,99312.59
2023-03-31T23:30:34.066Z,99317.44
2023-03-31T23:33:00.958Z,99318.53
2023-03-31T23:35:29.363Z,99318.06
2023-03-31T23:37:56.387Z,99318.84
2023-03-31T23:40:23.465Z,99318.38
2023-03-31T23:42:50.464Z,99317.34
2023-03-31T23:45:18.460Z,99315.41
2023-03-31T23:47:45.414Z,99318.84
2023-03-31T23:50:12.584Z,99320.00
2023-03-31T23:52:40.901Z,99320.75
2023-03-31T23:55:08.762Z,99317.06
2023-03-31T23:57:35.910Z,99318.69
